EZY554 EHRD-EIDW
Flight info
| Callsign | EZY554 |
|---|---|
| Flight time | N/A |
| Altitude | 36000 |
| Route | HAMZA DCT MIPVO DCT EME DCT HAW DCT RULAV DCT LAPMO |
| Aircraft | A321/M-SDE3FGHIRWY/LB1 |
Departure
| Time | 2026-04-28 17:54 |
|---|---|
| Airport | Rotterdam The Hague Airport (EHRD) |
Arrival
| Time | N/A |
|---|---|
| Airport | Dublin Airport (EIDW) |
| Time | Latitude | Longitude | Altitude | Speed | Heading |
|---|---|---|---|---|---|
| 2026-04-28 17:33 | 51.94993 | 4.43448 | 4 ft | 0 kts | 326° |
| 2026-04-28 17:48 | 51.94995 | 4.43448 | 4 ft | 1 kts | 341° |
| 2026-04-28 17:48 | 51.95023 | 4.43450 | 4 ft | 5 kts | 25° |
| 2026-04-28 17:49 | 51.95049 | 4.43483 | 4 ft | 5 kts | 46° |
| 2026-04-28 17:49 | 51.95067 | 4.43519 | 4 ft | 3 kts | 55° |
| 2026-04-28 17:49 | 51.95086 | 4.43557 | 4 ft | 5 kts | 35° |
| 2026-04-28 17:49 | 51.95124 | 4.43550 | 4 ft | 7 kts | 336° |
| 2026-04-28 17:50 | 51.95172 | 4.43505 | 4 ft | 9 kts | 329° |
| 2026-04-28 17:50 | 51.95228 | 4.43438 | 4 ft | 11 kts | 303° |
| 2026-04-28 17:50 | 51.95213 | 4.43330 | 4 ft | 10 kts | 238° |
| 2026-04-28 17:50 | 51.95175 | 4.43227 | 4 ft | 11 kts | 239° |
| 2026-04-28 17:51 | 51.95152 | 4.43161 | 4 ft | 0 kts | 242° |
| 2026-04-28 17:51 | 51.95145 | 4.43139 | 4 ft | 5 kts | 242° |
| 2026-04-28 17:51 | 51.95123 | 4.43072 | 4 ft | 8 kts | 242° |
| 2026-04-28 17:51 | 51.95112 | 4.43024 | 4 ft | 0 kts | 258° |
| 2026-04-28 17:52 | 51.95111 | 4.43015 | 4 ft | 8 kts | 260° |
| 2026-04-28 17:53 | 51.95147 | 4.42913 | 4 ft | 12 kts | 326° |
| 2026-04-28 17:53 | 51.95218 | 4.42876 | 5 ft | 11 kts | 29° |
| 2026-04-28 17:53 | 51.95268 | 4.42976 | 5 ft | 13 kts | 55° |
| 2026-04-28 17:53 | 51.95394 | 4.43282 | 3 ft | 70 kts | 57° |
| 2026-04-28 17:54 | 51.95823 | 4.44366 | 5 ft | 159 kts | 56° |
| 2026-04-28 17:54 | 51.96478 | 4.46045 | 572 ft | 185 kts | 59° |
| 2026-04-28 17:54 | 51.97202 | 4.47897 | 1339 ft | 208 kts | 57° |
| 2026-04-28 17:54 | 51.98074 | 4.50062 | 1805 ft | 251 kts | 56° |
| 2026-04-28 17:55 | 51.99112 | 4.52625 | 2272 ft | 293 kts | 56° |
| 2026-04-28 17:55 | 52.00290 | 4.55534 | 2717 ft | 322 kts | 56° |
| 2026-04-28 17:55 | 52.01565 | 4.58690 | 3156 ft | 346 kts | 57° |
| 2026-04-28 17:55 | 52.02920 | 4.62055 | 3600 ft | 363 kts | 57° |
| 2026-04-28 17:56 | 52.04314 | 4.65528 | 4237 ft | 370 kts | 56° |
| 2026-04-28 17:56 | 52.05951 | 4.68544 | 4881 ft | 336 kts | 36° |
| 2026-04-28 17:56 | 52.07921 | 4.69920 | 5444 ft | 289 kts | 6° |
| 2026-04-28 17:56 | 52.09767 | 4.69372 | 5873 ft | 266 kts | 329° |
| 2026-04-28 17:57 | 52.11248 | 4.67558 | 6299 ft | 268 kts | 319° |
| 2026-04-28 17:57 | 52.12441 | 4.65168 | 6855 ft | 281 kts | 294° |
| 2026-04-28 17:57 | 52.12842 | 4.62062 | 7590 ft | 291 kts | 266° |
| 2026-04-28 17:57 | 52.12590 | 4.58700 | 8181 ft | 308 kts | 265° |
| 2026-04-28 17:58 | 52.12811 | 4.55151 | 8729 ft | 323 kts | 279° |
| 2026-04-28 17:58 | 52.12888 | 4.51443 | 9309 ft | 335 kts | 262° |
| 2026-04-28 17:58 | 52.12266 | 4.47755 | 9925 ft | 343 kts | 249° |
| 2026-04-28 17:58 | 52.11394 | 4.44108 | 10619 ft | 348 kts | 249° |
| 2026-04-28 17:59 | 52.10563 | 4.40388 | 11421 ft | 350 kts | 250° |
| 2026-04-28 17:59 | 52.09733 | 4.36686 | 12304 ft | 347 kts | 247° |
| 2026-04-28 17:59 | 52.08691 | 4.33130 | 13032 ft | 351 kts | 241° |
| 2026-04-28 17:59 | 52.07404 | 4.29731 | 13628 ft | 356 kts | 235° |
| 2026-04-28 18:00 | 52.05906 | 4.26497 | 14244 ft | 360 kts | 232° |
| 2026-04-28 18:00 | 52.04361 | 4.23215 | 14680 ft | 377 kts | 232° |
| 2026-04-28 18:00 | 52.02712 | 4.19612 | 14014 ft | 408 kts | 232° |
| 2026-04-28 18:00 | 52.01060 | 4.15885 | 13240 ft | 402 kts | 233° |
| 2026-04-28 18:01 | 51.99537 | 4.12307 | 13335 ft | 374 kts | 235° |
| 2026-04-28 18:01 | 51.98159 | 4.08931 | 13568 ft | 345 kts | 235° |
| 2026-04-28 18:01 | 51.96925 | 4.05757 | 13723 ft | 322 kts | 237° |
| 2026-04-28 18:01 | 51.96018 | 4.02522 | 13746 ft | 310 kts | 254° |
| 2026-04-28 18:02 | 51.95585 | 3.99068 | 13748 ft | 327 kts | 261° |
| 2026-04-28 18:02 | 51.95501 | 3.95165 | 13810 ft | 366 kts | 270° |
| 2026-04-28 18:02 | 51.95522 | 3.90838 | 13830 ft | 401 kts | 270° |
| 2026-04-28 18:02 | 51.95543 | 3.86146 | 13906 ft | 429 kts | 269° |
| 2026-04-28 18:03 | 51.95564 | 3.81228 | 14416 ft | 439 kts | 270° |
| 2026-04-28 18:03 | 51.95584 | 3.76307 | 15462 ft | 435 kts | 270° |
| 2026-04-28 18:03 | 51.95605 | 3.71459 | 16277 ft | 415 kts | 270° |
| 2026-04-28 18:03 | 51.95625 | 3.67009 | 16795 ft | 377 kts | 270° |
| 2026-04-28 18:04 | 51.95645 | 3.62787 | 17007 ft | 386 kts | 270° |
| 2026-04-28 18:04 | 51.95666 | 3.58258 | 17025 ft | 416 kts | 270° |
| 2026-04-28 18:04 | 51.95688 | 3.53441 | 17185 ft | 438 kts | 270° |
| 2026-04-28 18:04 | 51.95710 | 3.48409 | 17511 ft | 454 kts | 270° |
| 2026-04-28 18:05 | 51.95734 | 3.43223 | 17985 ft | 465 kts | 270° |
| 2026-04-28 18:05 | 51.95750 | 3.39733 | 18385 ft | 470 kts | 270° |
| 2026-04-28 18:05 | 51.95782 | 3.32654 | 19212 ft | 476 kts | 270° |
| 2026-04-28 18:05 | 51.95807 | 3.27276 | 19943 ft | 478 kts | 270° |
| 2026-04-28 18:06 | 51.95656 | 3.21900 | 20733 ft | 476 kts | 262° |
| 2026-04-28 18:06 | 51.94883 | 3.16708 | 21581 ft | 473 kts | 249° |